TimeCDT,TemperatureF,Dew PointF,Humidity,Sea Level PressureIn,VisibilityMPH,Wind Direction,Wind SpeedMPH,Gust SpeedMPH,PrecipitationIn,Events,Conditions,WindDirDegrees,DateUTC
12:15 AM,78.4,50.9,38,30.05,10.0,East,4.6,-,N/A,,Clear,100,2013-09-16 05:15:00
12:35 AM,78.4,49.6,36,30.05,10.0,East,4.6,-,N/A,,Clear,80,2013-09-16 05:35:00
12:55 AM,78.1,49.1,36,30.05,10.0,East,5.8,-,N/A,,Clear,80,2013-09-16 05:55:00
1:15 AM,78.1,48.4,35,30.05,10.0,East,5.8,-,N/A,,Clear,80,2013-09-16 06:15:00
1:35 AM,77.9,48.2,35,30.05,10.0,East,4.6,-,N/A,,Clear,90,2013-09-16 06:35:00
1:55 AM,77.4,48.6,36,30.05,10.0,East,3.5,-,N/A,,Clear,90,2013-09-16 06:55:00
2:15 AM,76.1,50.2,40,30.05,10.0,East,3.5,-,N/A,,Clear,100,2013-09-16 07:15:00
2:35 AM,75.7,50.9,42,30.04,10.0,East,3.5,-,N/A,,Clear,100,2013-09-16 07:35:00
2:55 AM,75.2,51.8,44,30.04,10.0,Calm,Calm,-,N/A,,Clear,0,2013-09-16 07:55:00
3:15 AM,75.2,52.0,44,30.05,10.0,Calm,Calm,-,N/A,,Clear,0,2013-09-16 08:15:00
3:35 AM,74.1,53.1,48,30.05,10.0,Calm,Calm,-,N/A,,Clear,0,2013-09-16 08:35:00
3:55 AM,73.4,53.4,49,30.05,10.0,Calm,Calm,-,N/A,,Clear,0,2013-09-16 08:55:00
4:15 AM,73.0,54.0,51,30.05,10.0,Calm,Calm,-,N/A,,Clear,0,2013-09-16 09:15:00
4:35 AM,72.7,54.5,53,30.05,10.0,Calm,Calm,-,N/A,,Clear,0,2013-09-16 09:35:00
4:55 AM,71.6,55.6,57,30.05,10.0,ESE,3.5,-,N/A,,Clear,120,2013-09-16 09:55:00
5:15 AM,72.5,55.4,55,30.05,10.0,Calm,Calm,-,N/A,,Clear,0,2013-09-16 10:15:00
5:35 AM,72.9,55.9,55,30.06,10.0,Calm,Calm,-,N/A,,Clear,0,2013-09-16 10:35:00
5:55 AM,72.1,57.0,59,30.06,10.0,Calm,Calm,-,N/A,,Clear,0,2013-09-16 10:55:00
6:15 AM,71.8,57.6,61,30.06,10.0,Calm,Calm,-,N/A,,Clear,0,2013-09-16 11:15:00
6:35 AM,70.5,58.5,66,30.07,10.0,Calm,Calm,-,N/A,,Clear,0,2013-09-16 11:35:00
6:55 AM,69.3,59.0,70,30.08,10.0,Calm,Calm,-,N/A,,Clear,0,2013-09-16 11:55:00
7:15 AM,69.3,59.2,70,30.08,10.0,Calm,Calm,-,N/A,,Clear,0,2013-09-16 12:15:00
7:35 AM,70.7,60.3,69,30.09,10.0,Calm,Calm,-,N/A,,Clear,0,2013-09-16 12:35:00
7:55 AM,74.5,61.2,63,30.09,10.0,Calm,Calm,-,N/A,,Clear,0,2013-09-16 12:55:00
8:15 AM,76.3,62.4,62,30.10,10.0,Calm,Calm,-,N/A,,Clear,0,2013-09-16 13:15:00
8:35 AM,79.0,64.6,61,30.10,10.0,Calm,Calm,-,N/A,,Clear,0,2013-09-16 13:35:00
8:55 AM,81.3,66.6,61,30.10,10.0,Calm,Calm,-,N/A,,Clear,0,2013-09-16 13:55:00
9:15 AM,83.1,68.4,61,30.11,10.0,Calm,Calm,-,N/A,,Clear,0,2013-09-16 14:15:00
9:35 AM,83.8,68.9,61,30.12,10.0,Calm,Calm,-,N/A,,Clear,0,2013-09-16 14:35:00
9:55 AM,84.0,69.3,61,30.12,10.0,Calm,Calm,-,N/A,,Scattered Clouds,0,2013-09-16 14:55:00
10:15 AM,86.4,69.3,57,30.12,10.0,WNW,4.6,-,N/A,,Overcast,290,2013-09-16 15:15:00
10:35 AM,87.3,69.1,55,30.12,10.0,NNW,4.6,-,N/A,,Scattered Clouds,330,2013-09-16 15:35:00
10:55 AM,88.9,67.5,49,30.12,10.0,NW,3.5,-,N/A,,Clear,320,2013-09-16 15:55:00
11:15 AM,89.4,65.1,44,30.12,10.0,Calm,Calm,-,N/A,,Scattered Clouds,0,2013-09-16 16:15:00
11:35 AM,91.2,65.1,42,30.12,10.0,Calm,Calm,-,N/A,,Scattered Clouds,0,2013-09-16 16:35:00
11:55 AM,92.3,63.3,38,30.11,10.0,ENE,3.5,-,N/A,,Clear,60,2013-09-16 16:55:00
12:15 PM,92.7,63.7,38,30.10,10.0,East,4.6,-,N/A,,Clear,90,2013-09-16 17:15:00
12:35 PM,94.6,61.9,34,30.10,10.0,ENE,3.5,-,N/A,,Clear,60,2013-09-16 17:35:00
12:55 PM,94.1,63.3,36,30.09,10.0,NNW,5.8,-,N/A,,Scattered Clouds,340,2013-09-16 17:55:00
1:15 PM,95.4,62.8,34,30.08,10.0,East,4.6,-,N/A,,Scattered Clouds,90,2013-09-16 18:15:00
1:35 PM,94.3,62.2,34,30.07,10.0,East,4.6,-,N/A,,Scattered Clouds,80,2013-09-16 18:35:00
1:55 PM,93.9,62.6,35,30.06,10.0,East,8.1,-,N/A,,Clear,80,2013-09-16 18:55:00
2:15 PM,94.8,64.4,36,30.06,10.0,East,6.9,-,N/A,,Scattered Clouds,80,2013-09-16 19:15:00
2:35 PM,95.5,63.9,35,30.04,10.0,East,6.9,-,N/A,,Scattered Clouds,90,2013-09-16 19:35:00
2:55 PM,95.0,64.0,36,30.04,10.0,NE,5.8,-,N/A,,Scattered Clouds,40,2013-09-16 19:55:00
3:15 PM,94.1,62.6,35,30.03,10.0,NNE,4.6,-,N/A,,Scattered Clouds,20,2013-09-16 20:15:00
3:35 PM,95.2,62.4,34,30.02,10.0,NNE,4.6,-,N/A,,Scattered Clouds,20,2013-09-16 20:35:00
3:55 PM,96.4,61.5,31,30.02,10.0,ENE,6.9,-,N/A,,Clear,60,2013-09-16 20:55:00
4:15 PM,96.6,61.7,31,30.01,10.0,NE,5.8,-,N/A,,Scattered Clouds,50,2013-09-16 21:15:00
4:35 PM,93.9,61.9,34,30.01,10.0,ENE,4.6,-,N/A,,Mostly Cloudy,60,2013-09-16 21:35:00
4:55 PM,93.4,62.2,35,30.01,10.0,NE,3.5,-,N/A,,Mostly Cloudy,50,2013-09-16 21:55:00
5:15 PM,94.6,62.1,34,30.01,10.0,NE,4.6,-,N/A,,Scattered Clouds,40,2013-09-16 22:15:00
5:35 PM,94.1,61.9,34,30.01,10.0,NE,4.6,-,N/A,,Clear,50,2013-09-16 22:35:00
5:55 PM,92.7,61.7,36,30.00,10.0,NE,4.6,-,N/A,,Clear,40,2013-09-16 22:55:00
6:15 PM,91.6,62.1,37,30.00,10.0,Calm,Calm,-,N/A,,Clear,0,2013-09-16 23:15:00
6:35 PM,91.8,62.1,37,30.01,10.0,Calm,Calm,-,N/A,,Clear,0,2013-09-16 23:35:00
6:55 PM,90.7,62.6,39,30.01,10.0,Calm,Calm,-,N/A,,Clear,0,2013-09-16 23:55:00
7:15 PM,88.7,63.0,42,30.01,10.0,Calm,Calm,-,N/A,,Clear,0,2013-09-17 00:15:00
7:35 PM,87.4,63.7,45,30.01,10.0,Calm,Calm,-,N/A,,Clear,0,2013-09-17 00:35:00
7:55 PM,84.6,65.5,53,30.02,10.0,Calm,Calm,-,N/A,,Clear,0,2013-09-17 00:55:00
8:15 PM,84.0,65.3,53,30.02,10.0,Calm,Calm,-,N/A,,Clear,0,2013-09-17 01:15:00
8:35 PM,82.0,65.8,58,30.02,10.0,Calm,Calm,-,N/A,,Clear,0,2013-09-17 01:35:00
8:55 PM,82.0,66.9,60,30.03,10.0,Calm,Calm,-,N/A,,Clear,0,2013-09-17 01:55:00
9:15 PM,82.0,66.2,59,30.03,10.0,Calm,Calm,-,N/A,,Clear,0,2013-09-17 02:15:00
9:35 PM,81.1,66.4,61,30.04,10.0,Calm,Calm,-,N/A,,Scattered Clouds,0,2013-09-17 02:35:00
9:55 PM,81.5,66.6,60,30.04,10.0,Calm,Calm,-,N/A,,Mostly Cloudy,0,2013-09-17 02:55:00
10:15 PM,84.2,64.4,51,30.05,10.0,Calm,Calm,-,N/A,,Scattered Clouds,0,2013-09-17 03:15:00
10:35 PM,85.1,63.5,48,30.06,10.0,ENE,6.9,-,N/A,,Mostly Cloudy,60,2013-09-17 03:35:00
10:55 PM,84.6,63.9,50,30.07,10.0,East,5.8,-,N/A,,Overcast,80,2013-09-17 03:55:00
11:15 PM,83.5,64.2,52,30.07,10.0,East,4.6,-,N/A,,Mostly Cloudy,90,2013-09-17 04:15:00
11:35 PM,82.6,64.2,54,30.07,10.0,Calm,Calm,-,N/A,,Scattered Clouds,0,2013-09-17 04:35:00
11:55 PM,82.8,63.5,52,30.07,10.0,ENE,3.5,-,N/A,,Mostly Cloudy,60,2013-09-17 04:55:00